Cmb Sakura — 3EGO3 — position and weather

sailwx.info

Track history (hours):
 
Tides and Currents Weather Stations Pressure Air Temp Water Temp Dewpoint Dewpoint Depression Visibility Wind Speed Wind Dir Waves Ship Positions

Cmb Sakura

Last reported at 2015-Mar-23 17:33 UTC. Time now 2015-Mar-31 05:25 UTC.
Position N 27°41' W 016°32'.

Length 225 m; draft 8.4 m.

Type: Cargo ship. MMSI: 371784000.

Date/timePositionNaut miles runAvg speedWind from/ knotsBaromVisibWave heightAir tempDewpointWater temp
2015-Mar-23 17:33N 27°41' W 016°32'1412.7
2015-Mar-23 16:25N 27°54' W 016°25'1113.1
2015-Mar-23 15:33N 28°04' W 016°19'1313.3
2015-Mar-23 14:33N 28°14' W 016°08'1313.0
2015-Mar-23 13:33N 28°23' W 015°58'1212.3
2015-Mar-23 12:33N 28°33' W 015°49'1211.7
2015-Mar-23 11:33N 28°43' W 015°42'1212.4
2015-Mar-23 10:33N 28°54' W 015°37'1212.2
2015-Mar-23 09:33N 29°06' W 015°32'  
2015-Mar-18 06:28N 50°17' W 001°15'9 9.1
2015-Mar-18 05:28N 50°20' W 001°01'1410.4
2015-Mar-18 04:10N 50°24' W 000°41'811.9
2015-Mar-18 03:30N 50°27' W 000°29'1312.9
2015-Mar-18 02:31N 50°30' W 000°10'1313.4
2015-Mar-18 01:33N 50°34' E 000°10'1313.5
2015-Mar-18 00:33N 50°37' E 000°30'1312.6
2015-Mar-17 23:34N 50°44' E 000°47'1211.7
2015-Mar-17 22:33N 50°51' E 001°02'1110.9
2015-Mar-17 21:33N 50°58' E 001°15'1010.4
2015-Mar-17 20:33N 51°04' E 001°28'1211.9
2015-Mar-17 19:33N 51°12' E 001°43'1313.4
2015-Mar-17 18:33N 51°23' E 001°55'1414.1
2015-Mar-17 17:33N 51°34' E 002°09'1414.0
2015-Mar-17 16:34N 51°44' E 002°24'1313.1
2015-Mar-17 15:33N 51°54' E 002°38'1212.1
2015-Mar-17 14:33N 52°07' E 002°39'1211.4
2015-Mar-17 13:29N 52°19' E 002°39'2210.8
2015-Mar-17 11:29N 52°40' E 002°38'1111.2
2015-Mar-17 10:28N 52°52' E 002°37'1311.9
2015-Mar-17 09:21N 53°05' E 002°38'1012.4
2015-Mar-17 08:33N 53°14' E 002°43'9610.6
2015-Mar-16 23:29N 54°22' E 000°48'1111.8
2015-Mar-16 22:33N 54°27' E 000°32'1211.6
2015-Mar-16 21:34N 54°33' E 000°14'1111.4
2015-Mar-16 20:34N 54°38' W 000°04'1111.0
2015-Mar-16 19:34N 54°43' W 000°20'1111.0
2015-Mar-16 18:33N 54°48' W 000°37'1111.1
2015-Mar-16 17:34N 54°54' W 000°54'1211.4
2015-Mar-16 16:33N 54°59' W 001°12'9 0.4
2015-Mar-15 20:19N 54°59' W 001°28'0 0.0
2015-Mar-15 14:19N 54°59' W 001°28'0 0.0
2015-Mar-15 12:16N 54°59' W 001°28'0 0.0
2015-Mar-15 11:22N 54°59' W 001°28'0 0.0
2015-Mar-15 10:28N 54°59' W 001°28'0 0.0
2015-Mar-15 06:07N 54°59' W 001°28'0 0.0
2015-Mar-14 23:04N 54°59' W 001°28'0 0.0
2015-Mar-14 19:19N 54°59' W 001°28'0 0.0
2015-Mar-14 18:22N 54°59' W 001°28'0 0.0
2015-Mar-14 14:13N 54°59' W 001°28'0 0.0
2015-Mar-14 13:31N 54°59' W 001°28'0 0.0
2015-Mar-14 12:22N 54°59' W 001°28'0 0.0
2015-Mar-14 10:13N 54°59' W 001°28'0 0.0
2015-Mar-14 09:28N 54°59' W 001°28'0 0.0
2015-Mar-14 08:19N 54°59' W 001°28'0 0.0
2015-Mar-14 07:25N 54°59' W 001°28'0 0.0
2015-Mar-14 06:31N 54°59' W 001°28'0 0.0
2015-Mar-14 05:22N 54°59' W 001°28'0 0.0
2015-Mar-14 04:13N 54°59' W 001°28'0 0.0
2015-Mar-14 03:19N 54°59' W 001°28'0 0.0
2015-Mar-14 02:28N 54°59' W 001°28'0 0.0
2015-Mar-14 01:19N 54°59' W 001°28'0 0.0
2015-Mar-14 00:31N 54°59' W 001°28'  
Track history (hours):
 
Tides and Currents Weather Stations Pressure Air Temp Water Temp Dewpoint Dewpoint Depression Visibility Wind Speed Wind Dir Waves Ship Positions

Cmb Sakura

Last reported at 2015-Mar-23 17:33 UTC. Time now 2015-Mar-31 05:25 UTC.
Position N 27°41' W 016°32'.

Length 225 m; draft 8.4 m.

Type: Cargo ship. MMSI: 371784000.

Date/timePositionNaut miles runAvg speedWind from/ knotsBaromVisibWave heightAir tempDewpointWater temp
2015-Mar-23 17:33N 27°41' W 016°32'1412.7
2015-Mar-23 16:25N 27°54' W 016°25'1113.1
2015-Mar-23 15:33N 28°04' W 016°19'1313.3
2015-Mar-23 14:33N 28°14' W 016°08'1313.0
2015-Mar-23 13:33N 28°23' W 015°58'1212.3
2015-Mar-23 12:33N 28°33' W 015°49'1211.7
2015-Mar-23 11:33N 28°43' W 015°42'1212.4
2015-Mar-23 10:33N 28°54' W 015°37'1212.2
2015-Mar-23 09:33N 29°06' W 015°32'  
2015-Mar-18 06:28N 50°17' W 001°15'9 9.1
2015-Mar-18 05:28N 50°20' W 001°01'1410.4
2015-Mar-18 04:10N 50°24' W 000°41'811.9
2015-Mar-18 03:30N 50°27' W 000°29'1312.9
2015-Mar-18 02:31N 50°30' W 000°10'1313.4
2015-Mar-18 01:33N 50°34' E 000°10'1313.5
2015-Mar-18 00:33N 50°37' E 000°30'1312.6
2015-Mar-17 23:34N 50°44' E 000°47'1211.7
2015-Mar-17 22:33N 50°51' E 001°02'1110.9
2015-Mar-17 21:33N 50°58' E 001°15'1010.4
2015-Mar-17 20:33N 51°04' E 001°28'1211.9
2015-Mar-17 19:33N 51°12' E 001°43'1313.4
2015-Mar-17 18:33N 51°23' E 001°55'1414.1
2015-Mar-17 17:33N 51°34' E 002°09'1414.0
2015-Mar-17 16:34N 51°44' E 002°24'1313.1
2015-Mar-17 15:33N 51°54' E 002°38'1212.1
2015-Mar-17 14:33N 52°07' E 002°39'1211.4
2015-Mar-17 13:29N 52°19' E 002°39'2210.8
2015-Mar-17 11:29N 52°40' E 002°38'1111.2
2015-Mar-17 10:28N 52°52' E 002°37'1311.9
2015-Mar-17 09:21N 53°05' E 002°38'1012.4
2015-Mar-17 08:33N 53°14' E 002°43'9610.6
2015-Mar-16 23:29N 54°22' E 000°48'1111.8
2015-Mar-16 22:33N 54°27' E 000°32'1211.6
2015-Mar-16 21:34N 54°33' E 000°14'1111.4
2015-Mar-16 20:34N 54°38' W 000°04'1111.0
2015-Mar-16 19:34N 54°43' W 000°20'1111.0
2015-Mar-16 18:33N 54°48' W 000°37'1111.1
2015-Mar-16 17:34N 54°54' W 000°54'1211.4
2015-Mar-16 16:33N 54°59' W 001°12'9 0.4
2015-Mar-15 20:19N 54°59' W 001°28'0 0.0
2015-Mar-15 14:19N 54°59' W 001°28'0 0.0
2015-Mar-15 12:16N 54°59' W 001°28'0 0.0
2015-Mar-15 11:22N 54°59' W 001°28'0 0.0
2015-Mar-15 10:28N 54°59' W 001°28'0 0.0
2015-Mar-15 06:07N 54°59' W 001°28'0 0.0
2015-Mar-14 23:04N 54°59' W 001°28'0 0.0
2015-Mar-14 19:19N 54°59' W 001°28'0 0.0
2015-Mar-14 18:22N 54°59' W 001°28'0 0.0
2015-Mar-14 14:13N 54°59' W 001°28'0 0.0
2015-Mar-14 13:31N 54°59' W 001°28'0 0.0
2015-Mar-14 12:22N 54°59' W 001°28'0 0.0
2015-Mar-14 10:13N 54°59' W 001°28'0 0.0
2015-Mar-14 09:28N 54°59' W 001°28'0 0.0
2015-Mar-14 08:19N 54°59' W 001°28'0 0.0
2015-Mar-14 07:25N 54°59' W 001°28'0 0.0
2015-Mar-14 06:31N 54°59' W 001°28'0 0.0
2015-Mar-14 05:22N 54°59' W 001°28'0 0.0
2015-Mar-14 04:13N 54°59' W 001°28'0 0.0
2015-Mar-14 03:19N 54°59' W 001°28'0 0.0
2015-Mar-14 02:28N 54°59' W 001°28'0 0.0
2015-Mar-14 01:19N 54°59' W 001°28'0 0.0
2015-Mar-14 00:31N 54°59' W 001°28'  

Dump ship's entire track history